»·PEaware :: JBU440 KGEG-KMSO

JBU440 :: KGEG-KMSO

FLIGHT INFORMATION

Flight Status: Arrived
Operator:
JetBlue Airways
More flights by this operator :: More flights under this callsign
Pilot: Alex C. (14758)
Aircraft: AIRBUS A320
(A320)
More flights by this aircraft type
Origin: KGEG Spokane Intl
United States
Destination: KMSO Missoula Intl
United States
More flights between these airports :: More routes between these airports
Route: +GEG J136 MLP V2 MSO
File this flight plan on PilotEdge
Remarks:
Altitude:
(Current/Filed)
23,000ft
Speed:
(Current/Filed)
440kts
Departed: 30-Oct-18 11:42 AM
Arrived: 30-Oct-18 12:23 PM
Distance/Time
Traveled:
147nm/0:40
Distance/Time
To Go:
Arrived

Flight Plot

Page will automatically refresh every two minutes.

Flight plan parsing failed; only flown route is shown


Map Options




Map Legend


Flown Route
Filed Route
Departure Airport
Arrival Airport
Navaid (VOR, NDB)
Fix

Horizontal Profiles

Position Reports

Time Latitude Longitude Heading Altitude Ground
Speed
30-Oct-18 11:23 47.624487 -117.536630 90 2392ft 0kts
30-Oct-18 11:24 47.624487 -117.536630 90 2392ft 0kts
30-Oct-18 11:25 47.624487 -117.536630 90 2392ft 0kts
30-Oct-18 11:26 47.624487 -117.536630 90 2392ft 0kts
30-Oct-18 11:27 47.624487 -117.536630 90 2392ft 0kts
30-Oct-18 11:28 47.624473 -117.537313 115 2392ft 0kts
30-Oct-18 11:29 47.624557 -117.537452 146 2392ft 0kts
30-Oct-18 11:30 47.624557 -117.537452 146 2392ft 0kts
30-Oct-18 11:31 47.624557 -117.537452 146 2392ft 0kts
30-Oct-18 11:32 47.624557 -117.537452 146 2392ft 0kts
30-Oct-18 11:33 47.624557 -117.537452 146 2392ft 0kts
30-Oct-18 11:34 47.624557 -117.537452 146 2392ft 0kts
30-Oct-18 11:35 47.624557 -117.537452 146 2392ft 0kts
30-Oct-18 11:36 47.624557 -117.537452 146 2392ft 0kts
30-Oct-18 11:37 47.624557 -117.537452 146 2392ft 0kts
30-Oct-18 11:38 47.623412 -117.536674 135 2392ft 0kts
30-Oct-18 11:39 47.623314 -117.536509 123 2392ft 6kts
30-Oct-18 11:40 47.624059 -117.533087 45 2392ft 26kts
30-Oct-18 11:41 47.628106 -117.527026 45 2392ft 35kts
30-Oct-18 11:42 47.632074 -117.521068 46 2392ft 20kts
30-Oct-18 11:43 47.631916 -117.519482 134 2392ft 0kts
30-Oct-18 11:44 47.631916 -117.519482 134 2392ft 0kts
30-Oct-18 11:45 47.628305 -117.522637 225 2392ft 83kts
30-Oct-18 11:46 47.602623 -117.560639 214 3104ft 199kts
30-Oct-18 11:47 47.570091 -117.537022 81 4853ft 219kts
30-Oct-18 11:48 47.585056 -117.469328 80 6372ft 274kts
30-Oct-18 11:49 47.586550 -117.381282 90 7373ft 272kts
30-Oct-18 11:50 47.582223 -117.292731 94 9886ft 287kts
30-Oct-18 11:51 47.573968 -117.167305 95 10952ft 368kts
30-Oct-18 11:52 47.565654 -117.048266 95 13468ft 381kts
30-Oct-18 11:53 47.556456 -116.919278 94 15866ft 395kts
30-Oct-18 11:54 47.546867 -116.786834 95 18095ft 407kts
30-Oct-18 11:55 47.537342 -116.657489 94 20009ft 419kts
30-Oct-18 11:56 47.527173 -116.521549 95 21824ft 430kts
30-Oct-18 11:57 47.516652 -116.384143 95 23026ft 444kts
30-Oct-18 11:58 47.505418 -116.240563 95 22997ft 439kts
30-Oct-18 11:59 47.494505 -116.103399 95 23001ft 438kts
30-Oct-18 12:00 47.482891 -115.959640 96 23000ft 440kts
30-Oct-18 12:01 47.472799 -115.836581 95 23001ft 440kts
30-Oct-18 12:02 47.461865 -115.705098 95 23000ft 438kts
30-Oct-18 12:03 47.431999 -115.575500 114 22998ft 441kts
30-Oct-18 12:04 47.389658 -115.449807 115 22780ft 375kts
30-Oct-18 12:04 47.358580 -115.359329 115 21507ft 373kts
30-Oct-18 12:05 47.323587 -115.257833 116 20243ft 365kts
30-Oct-18 12:06 47.291101 -115.164106 116 18980ft 357kts
30-Oct-18 12:07 47.258978 -115.071794 116 17266ft 349kts
30-Oct-18 12:08 47.227643 -114.982024 115 15218ft 339kts
30-Oct-18 12:09 47.194998 -114.888854 116 14691ft 331kts
30-Oct-18 12:11 47.175727 -114.786029 81 14044ft 303kts
30-Oct-18 12:11 47.181510 -114.707132 82 13188ft 297kts
30-Oct-18 12:12 47.183863 -114.625395 101 12736ft 263kts
30-Oct-18 12:13 47.170024 -114.548289 102 11462ft 256kts
30-Oct-18 12:14 47.137952 -114.501156 188 10366ft 238kts
30-Oct-18 12:15 47.101280 -114.476643 97 9449ft 215kts
30-Oct-18 12:16 47.098246 -114.413341 95 8648ft 212kts
30-Oct-18 12:17 47.073072 -114.362122 126 7814ft 213kts
30-Oct-18 12:18 47.044462 -114.311906 127 6905ft 210kts
30-Oct-18 12:19 47.015247 -114.261566 128 5991ft 207kts
30-Oct-18 12:20 46.986053 -114.211387 129 5095ft 211kts
30-Oct-18 12:21 46.957566 -114.162543 128 4225ft 194kts
30-Oct-18 12:22 46.936639 -114.126690 128 3603ft 144kts
30-Oct-18 12:23 46.919565 -114.097314 128 3213ft 93kts
30-Oct-18 12:24 46.913626 -114.087200 128 3213ft 41kts
30-Oct-18 12:25 46.914237 -114.083316 0 3213ft 14kts
30-Oct-18 12:26 46.917250 -114.085720 7 3213ft 34kts

Navigation Log

Ident Type
Flight plan parsing failed, navigation log unavailable